Terminal Aerodrome Forecast
Issued by NWS Cleveland, OH

Home | Current Version | Previous Version | Text Only | Print | Product List | Glossary Off
Versions: 1 2 3 4 5 6 7 8 9 10 11 12 13 14 15 16 17 18 19

969
FTUS41 KCLE 200815 AAA
TAFCAK
TAF AMD
KCAK 200815Z 2008/2106 VRB03KT P6SM SCT025 BKN180
      TEMPO 2009/2012 4SM BR
     FM201500 17008KT P6SM BKN050
     FM202100 18008KT 4SM SHRA OVC030
     FM210100 VRB04KT 5SM -SHRA OVC008=

USA.gov is the U.S. government's official web portal to all federal, state and local government web resources and services.